sensor_id;sensor_type;location;lat;lon;timestamp;P1;durP1;ratioP1;P2;durP2;ratioP2
21876;SDS011;11103;43.788;23.710;2022-07-29T00:02:01;9.07;;;7.17;;
21876;SDS011;11103;43.788;23.710;2022-07-29T00:04:26;9.13;;;6.87;;
21876;SDS011;11103;43.788;23.710;2022-07-29T00:06:52;14.20;;;7.53;;
21876;SDS011;11103;43.788;23.710;2022-07-29T00:09:17;11.30;;;7.83;;
21876;SDS011;11103;43.788;23.710;2022-07-29T00:11:43;11.70;;;7.63;;
21876;SDS011;11103;43.788;23.710;2022-07-29T00:14:08;9.50;;;7.47;;
21876;SDS011;11103;43.788;23.710;2022-07-29T00:16:34;11.87;;;7.60;;
21876;SDS011;11103;43.788;23.710;2022-07-29T00:19:00;10.37;;;8.23;;
21876;SDS011;11103;43.788;23.710;2022-07-29T00:21:26;11.73;;;7.97;;
21876;SDS011;11103;43.788;23.710;2022-07-29T00:23:51;8.67;;;7.27;;
21876;SDS011;11103;43.788;23.710;2022-07-29T00:26:17;8.17;;;7.37;;
21876;SDS011;11103;43.788;23.710;2022-07-29T00:28:42;10.50;;;7.47;;
21876;SDS011;11103;43.788;23.710;2022-07-29T00:31:08;11.83;;;7.50;;
21876;SDS011;11103;43.788;23.710;2022-07-29T00:33:33;12.00;;;6.83;;
21876;SDS011;11103;43.788;23.710;2022-07-29T00:35:58;12.03;;;7.83;;
21876;SDS011;11103;43.788;23.710;2022-07-29T00:38:24;10.53;;;7.20;;
21876;SDS011;11103;43.788;23.710;2022-07-29T00:40:49;10.63;;;7.87;;
21876;SDS011;11103;43.788;23.710;2022-07-29T00:43:16;11.83;;;7.93;;
21876;SDS011;11103;43.788;23.710;2022-07-29T00:45:42;10.80;;;7.87;;
21876;SDS011;11103;43.788;23.710;2022-07-29T00:48:07;8.70;;;7.73;;
21876;SDS011;11103;43.788;23.710;2022-07-29T00:50:34;10.30;;;7.60;;
21876;SDS011;11103;43.788;23.710;2022-07-29T00:53:00;10.57;;;7.70;;
21876;SDS011;11103;43.788;23.710;2022-07-29T00:55:27;11.27;;;8.00;;
21876;SDS011;11103;43.788;23.710;2022-07-29T00:57:53;9.80;;;7.50;;
21876;SDS011;11103;43.788;23.710;2022-07-29T01:00:22;8.90;;;7.83;;
21876;SDS011;11103;43.788;23.710;2022-07-29T01:02:49;14.57;;;7.43;;
21876;SDS011;11103;43.788;23.710;2022-07-29T01:05:16;11.37;;;7.97;;
21876;SDS011;11103;43.788;23.710;2022-07-29T01:07:44;9.30;;;7.80;;
21876;SDS011;11103;43.788;23.710;2022-07-29T01:10:12;12.20;;;8.30;;
21876;SDS011;11103;43.788;23.710;2022-07-29T01:12:39;9.17;;;8.13;;
21876;SDS011;11103;43.788;23.710;2022-07-29T01:15:08;10.97;;;8.03;;
21876;SDS011;11103;43.788;23.710;2022-07-29T01:30:45;9.07;;;8.00;;
21876;SDS011;11103;43.788;23.710;2022-07-29T01:33:15;10.40;;;8.43;;
21876;SDS011;11103;43.788;23.710;2022-07-29T01:36:04;10.77;;;8.00;;
21876;SDS011;11103;43.788;23.710;2022-07-29T01:38:35;10.93;;;8.57;;
21876;SDS011;11103;43.788;23.710;2022-07-29T01:43:44;11.00;;;8.47;;
21876;SDS011;11103;43.788;23.710;2022-07-29T01:46:21;11.43;;;8.40;;
21876;SDS011;11103;43.788;23.710;2022-07-29T01:48:53;13.07;;;8.30;;
21876;SDS011;11103;43.788;23.710;2022-07-29T01:51:27;10.13;;;8.80;;
21876;SDS011;11103;43.788;23.710;2022-07-29T01:54:08;10.47;;;8.07;;
21876;SDS011;11103;43.788;23.710;2022-07-29T01:56:38;13.00;;;8.20;;
21876;SDS011;11103;43.788;23.710;2022-07-29T01:59:07;13.37;;;8.77;;
21876;SDS011;11103;43.788;23.710;2022-07-29T02:01:34;11.87;;;8.53;;
21876;SDS011;11103;43.788;23.710;2022-07-29T02:04:05;12.43;;;7.83;;
21876;SDS011;11103;43.788;23.710;2022-07-29T02:06:33;10.13;;;8.07;;
21876;SDS011;11103;43.788;23.710;2022-07-29T02:09:02;10.77;;;8.27;;
21876;SDS011;11103;43.788;23.710;2022-07-29T02:11:30;11.90;;;8.50;;
21876;SDS011;11103;43.788;23.710;2022-07-29T02:13:58;9.93;;;8.10;;
21876;SDS011;11103;43.788;23.710;2022-07-29T02:16:26;12.23;;;8.73;;
21876;SDS011;11103;43.788;23.710;2022-07-29T02:18:55;10.67;;;8.43;;
21876;SDS011;11103;43.788;23.710;2022-07-29T02:21:24;10.23;;;8.07;;
21876;SDS011;11103;43.788;23.710;2022-07-29T02:23:51;13.30;;;8.47;;
21876;SDS011;11103;43.788;23.710;2022-07-29T02:26:19;11.23;;;9.10;;
21876;SDS011;11103;43.788;23.710;2022-07-29T02:28:47;11.33;;;8.90;;
21876;SDS011;11103;43.788;23.710;2022-07-29T02:31:14;12.63;;;8.67;;
21876;SDS011;11103;43.788;23.710;2022-07-29T02:33:43;11.17;;;8.73;;
21876;SDS011;11103;43.788;23.710;2022-07-29T02:36:10;11.90;;;8.60;;
21876;SDS011;11103;43.788;23.710;2022-07-29T02:38:36;10.47;;;8.60;;
21876;SDS011;11103;43.788;23.710;2022-07-29T02:44:15;13.30;;;8.20;;
21876;SDS011;11103;43.788;23.710;2022-07-29T02:46:47;13.03;;;8.53;;
21876;SDS011;11103;43.788;23.710;2022-07-29T02:49:30;11.13;;;8.70;;
21876;SDS011;11103;43.788;23.710;2022-07-29T02:52:02;9.53;;;8.27;;
21876;SDS011;11103;43.788;23.710;2022-07-29T02:56:59;9.87;;;8.43;;
21876;SDS011;11103;43.788;23.710;2022-07-29T02:59:28;13.30;;;8.37;;
21876;SDS011;11103;43.788;23.710;2022-07-29T03:01:55;11.87;;;9.27;;
21876;SDS011;11103;43.788;23.710;2022-07-29T03:04:24;12.23;;;10.07;;
21876;SDS011;11103;43.788;23.710;2022-07-29T03:06:51;9.23;;;8.00;;
21876;SDS011;11103;43.788;23.710;2022-07-29T03:09:18;10.73;;;8.70;;
21876;SDS011;11103;43.788;23.710;2022-07-29T03:11:44;12.77;;;9.43;;
21876;SDS011;11103;43.788;23.710;2022-07-29T03:14:10;12.03;;;8.27;;
21876;SDS011;11103;43.788;23.710;2022-07-29T03:16:37;12.90;;;9.10;;
21876;SDS011;11103;43.788;23.710;2022-07-29T03:19:02;18.03;;;9.77;;
21876;SDS011;11103;43.788;23.710;2022-07-29T03:21:29;14.63;;;9.20;;
21876;SDS011;11103;43.788;23.710;2022-07-29T03:23:55;11.70;;;8.83;;
21876;SDS011;11103;43.788;23.710;2022-07-29T03:26:20;12.77;;;8.87;;
21876;SDS011;11103;43.788;23.710;2022-07-29T03:28:46;16.13;;;8.80;;
21876;SDS011;11103;43.788;23.710;2022-07-29T03:31:11;12.00;;;8.80;;
21876;SDS011;11103;43.788;23.710;2022-07-29T03:33:37;11.83;;;9.10;;
21876;SDS011;11103;43.788;23.710;2022-07-29T03:36:02;16.40;;;10.40;;
21876;SDS011;11103;43.788;23.710;2022-07-29T03:38:28;19.93;;;12.27;;
21876;SDS011;11103;43.788;23.710;2022-07-29T03:40:56;18.23;;;12.40;;
21876;SDS011;11103;43.788;23.710;2022-07-29T03:43:26;19.17;;;12.07;;
21876;SDS011;11103;43.788;23.710;2022-07-29T03:45:56;22.93;;;13.50;;
21876;SDS011;11103;43.788;23.710;2022-07-29T03:48:25;23.10;;;12.73;;
21876;SDS011;11103;43.788;23.710;2022-07-29T03:50:52;22.40;;;12.67;;
21876;SDS011;11103;43.788;23.710;2022-07-29T03:53:18;15.77;;;11.27;;
21876;SDS011;11103;43.788;23.710;2022-07-29T03:55:45;13.20;;;9.30;;
21876;SDS011;11103;43.788;23.710;2022-07-29T03:58:14;14.57;;;9.93;;
21876;SDS011;11103;43.788;23.710;2022-07-29T04:00:40;12.60;;;8.97;;
21876;SDS011;11103;43.788;23.710;2022-07-29T04:03:07;14.30;;;8.70;;
21876;SDS011;11103;43.788;23.710;2022-07-29T04:05:33;13.40;;;9.40;;
21876;SDS011;11103;43.788;23.710;2022-07-29T04:07:59;14.33;;;10.20;;
21876;SDS011;11103;43.788;23.710;2022-07-29T04:10:24;14.30;;;8.80;;
21876;SDS011;11103;43.788;23.710;2022-07-29T04:12:50;14.57;;;9.37;;
21876;SDS011;11103;43.788;23.710;2022-07-29T04:15:15;17.83;;;8.87;;
21876;SDS011;11103;43.788;23.710;2022-07-29T04:17:41;10.70;;;8.60;;
21876;SDS011;11103;43.788;23.710;2022-07-29T04:20:06;12.67;;;8.67;;
21876;SDS011;11103;43.788;23.710;2022-07-29T04:22:33;13.67;;;9.27;;
21876;SDS011;11103;43.788;23.710;2022-07-29T04:24:59;13.10;;;8.73;;
21876;SDS011;11103;43.788;23.710;2022-07-29T04:27:24;15.83;;;8.40;;
21876;SDS011;11103;43.788;23.710;2022-07-29T04:29:50;13.77;;;8.90;;
21876;SDS011;11103;43.788;23.710;2022-07-29T04:32:15;10.83;;;8.83;;
21876;SDS011;11103;43.788;23.710;2022-07-29T04:34:41;10.90;;;8.80;;
21876;SDS011;11103;43.788;23.710;2022-07-29T04:37:06;11.60;;;8.50;;
21876;SDS011;11103;43.788;23.710;2022-07-29T04:39:31;11.70;;;8.20;;
21876;SDS011;11103;43.788;23.710;2022-07-29T04:41:57;10.30;;;8.53;;
21876;SDS011;11103;43.788;23.710;2022-07-29T04:44:22;11.63;;;8.93;;
21876;SDS011;11103;43.788;23.710;2022-07-29T04:46:48;14.60;;;9.30;;
21876;SDS011;11103;43.788;23.710;2022-07-29T04:49:13;16.90;;;9.77;;
21876;SDS011;11103;43.788;23.710;2022-07-29T04:51:39;12.83;;;9.43;;
21876;SDS011;11103;43.788;23.710;2022-07-29T04:54:04;11.40;;;9.27;;
21876;SDS011;11103;43.788;23.710;2022-07-29T04:56:31;11.97;;;9.50;;
21876;SDS011;11103;43.788;23.710;2022-07-29T04:58:56;14.53;;;9.77;;
21876;SDS011;11103;43.788;23.710;2022-07-29T05:01:22;12.40;;;8.53;;
21876;SDS011;11103;43.788;23.710;2022-07-29T05:03:47;11.80;;;9.30;;
21876;SDS011;11103;43.788;23.710;2022-07-29T05:06:12;12.23;;;8.97;;
21876;SDS011;11103;43.788;23.710;2022-07-29T05:08:38;13.20;;;9.20;;
21876;SDS011;11103;43.788;23.710;2022-07-29T05:11:03;12.77;;;9.63;;
21876;SDS011;11103;43.788;23.710;2022-07-29T05:13:29;13.87;;;10.00;;
21876;SDS011;11103;43.788;23.710;2022-07-29T05:15:55;14.40;;;9.63;;
21876;SDS011;11103;43.788;23.710;2022-07-29T05:18:23;13.43;;;9.73;;
21876;SDS011;11103;43.788;23.710;2022-07-29T05:20:49;15.10;;;9.40;;
21876;SDS011;11103;43.788;23.710;2022-07-29T05:23:14;13.13;;;9.50;;
21876;SDS011;11103;43.788;23.710;2022-07-29T05:25:39;12.67;;;9.87;;
21876;SDS011;11103;43.788;23.710;2022-07-29T05:28:05;12.43;;;9.63;;
21876;SDS011;11103;43.788;23.710;2022-07-29T05:30:30;12.73;;;9.40;;
21876;SDS011;11103;43.788;23.710;2022-07-29T05:32:56;13.73;;;9.40;;
21876;SDS011;11103;43.788;23.710;2022-07-29T05:35:21;12.40;;;9.30;;
21876;SDS011;11103;43.788;23.710;2022-07-29T05:37:47;15.67;;;10.03;;
21876;SDS011;11103;43.788;23.710;2022-07-29T05:40:13;13.03;;;9.90;;
21876;SDS011;11103;43.788;23.710;2022-07-29T05:42:38;16.00;;;10.70;;
21876;SDS011;11103;43.788;23.710;2022-07-29T05:45:04;11.23;;;8.60;;
21876;SDS011;11103;43.788;23.710;2022-07-29T05:47:30;13.40;;;9.40;;
21876;SDS011;11103;43.788;23.710;2022-07-29T05:49:55;15.67;;;9.33;;
21876;SDS011;11103;43.788;23.710;2022-07-29T05:52:22;14.80;;;10.33;;
21876;SDS011;11103;43.788;23.710;2022-07-29T05:54:47;13.57;;;9.30;;
21876;SDS011;11103;43.788;23.710;2022-07-29T05:57:17;13.23;;;7.97;;
21876;SDS011;11103;43.788;23.710;2022-07-29T05:59:44;16.57;;;9.73;;
21876;SDS011;11103;43.788;23.710;2022-07-29T06:02:10;11.03;;;9.10;;
21876;SDS011;11103;43.788;23.710;2022-07-29T06:04:36;13.43;;;9.63;;
21876;SDS011;11103;43.788;23.710;2022-07-29T06:07:01;14.13;;;9.43;;
21876;SDS011;11103;43.788;23.710;2022-07-29T06:09:27;14.27;;;9.17;;
21876;SDS011;11103;43.788;23.710;2022-07-29T06:11:52;15.40;;;9.90;;
21876;SDS011;11103;43.788;23.710;2022-07-29T06:14:18;13.37;;;9.60;;
21876;SDS011;11103;43.788;23.710;2022-07-29T06:16:43;16.27;;;10.63;;
21876;SDS011;11103;43.788;23.710;2022-07-29T06:19:09;15.47;;;11.60;;
21876;SDS011;11103;43.788;23.710;2022-07-29T06:21:34;12.93;;;9.30;;
21876;SDS011;11103;43.788;23.710;2022-07-29T06:24:00;16.33;;;10.90;;
21876;SDS011;11103;43.788;23.710;2022-07-29T06:26:25;17.47;;;9.57;;
21876;SDS011;11103;43.788;23.710;2022-07-29T06:28:51;17.37;;;11.10;;
21876;SDS011;11103;43.788;23.710;2022-07-29T06:31:16;23.17;;;15.60;;
21876;SDS011;11103;43.788;23.710;2022-07-29T06:33:42;38.67;;;21.23;;
21876;SDS011;11103;43.788;23.710;2022-07-29T06:36:07;29.40;;;19.43;;
21876;SDS011;11103;43.788;23.710;2022-07-29T06:38:33;15.93;;;10.63;;
21876;SDS011;11103;43.788;23.710;2022-07-29T06:40:59;12.93;;;9.70;;
21876;SDS011;11103;43.788;23.710;2022-07-29T06:43:29;13.47;;;9.80;;
21876;SDS011;11103;43.788;23.710;2022-07-29T06:46:00;11.17;;;8.93;;
21876;SDS011;11103;43.788;23.710;2022-07-29T06:48:28;13.23;;;9.37;;
21876;SDS011;11103;43.788;23.710;2022-07-29T06:50:54;22.27;;;12.73;;
21876;SDS011;11103;43.788;23.710;2022-07-29T06:53:19;19.87;;;12.70;;
21876;SDS011;11103;43.788;23.710;2022-07-29T06:55:45;16.17;;;10.53;;
21876;SDS011;11103;43.788;23.710;2022-07-29T06:58:10;11.73;;;9.57;;
21876;SDS011;11103;43.788;23.710;2022-07-29T07:00:36;17.73;;;10.97;;
21876;SDS011;11103;43.788;23.710;2022-07-29T07:03:02;20.87;;;12.97;;
21876;SDS011;11103;43.788;23.710;2022-07-29T07:05:28;17.57;;;11.10;;
21876;SDS011;11103;43.788;23.710;2022-07-29T07:07:53;62.60;;;34.60;;
21876;SDS011;11103;43.788;23.710;2022-07-29T07:10:19;14.73;;;10.80;;
21876;SDS011;11103;43.788;23.710;2022-07-29T07:12:44;25.23;;;10.93;;
21876;SDS011;11103;43.788;23.710;2022-07-29T07:15:10;12.70;;;9.27;;
21876;SDS011;11103;43.788;23.710;2022-07-29T07:17:35;10.57;;;7.83;;
21876;SDS011;11103;43.788;23.710;2022-07-29T07:20:00;13.60;;;10.17;;
21876;SDS011;11103;43.788;23.710;2022-07-29T07:22:26;11.57;;;8.80;;
21876;SDS011;11103;43.788;23.710;2022-07-29T07:24:51;18.57;;;9.20;;
21876;SDS011;11103;43.788;23.710;2022-07-29T07:27:17;16.03;;;9.00;;
21876;SDS011;11103;43.788;23.710;2022-07-29T07:29:42;13.00;;;8.87;;
21876;SDS011;11103;43.788;23.710;2022-07-29T07:32:07;19.07;;;12.83;;
21876;SDS011;11103;43.788;23.710;2022-07-29T07:34:33;22.27;;;13.83;;
21876;SDS011;11103;43.788;23.710;2022-07-29T07:36:58;11.53;;;8.80;;
21876;SDS011;11103;43.788;23.710;2022-07-29T07:39:24;18.27;;;9.90;;
21876;SDS011;11103;43.788;23.710;2022-07-29T07:41:51;16.43;;;10.70;;
21876;SDS011;11103;43.788;23.710;2022-07-29T07:44:17;13.97;;;9.87;;
21876;SDS011;11103;43.788;23.710;2022-07-29T07:46:42;9.87;;;8.03;;
21876;SDS011;11103;43.788;23.710;2022-07-29T07:49:09;12.20;;;8.77;;
21876;SDS011;11103;43.788;23.710;2022-07-29T07:51:35;11.43;;;8.83;;
21876;SDS011;11103;43.788;23.710;2022-07-29T07:54:01;15.07;;;8.73;;
21876;SDS011;11103;43.788;23.710;2022-07-29T07:56:26;11.90;;;8.50;;
21876;SDS011;11103;43.788;23.710;2022-07-29T07:58:52;15.00;;;9.50;;
21876;SDS011;11103;43.788;23.710;2022-07-29T08:01:17;11.70;;;9.47;;
21876;SDS011;11103;43.788;23.710;2022-07-29T08:03:44;14.03;;;9.13;;
21876;SDS011;11103;43.788;23.710;2022-07-29T08:06:09;14.27;;;8.90;;
21876;SDS011;11103;43.788;23.710;2022-07-29T08:08:35;14.40;;;9.00;;
21876;SDS011;11103;43.788;23.710;2022-07-29T08:11:00;14.53;;;9.77;;
21876;SDS011;11103;43.788;23.710;2022-07-29T08:13:27;14.17;;;10.27;;
21876;SDS011;11103;43.788;23.710;2022-07-29T08:15:53;11.17;;;9.00;;
21876;SDS011;11103;43.788;23.710;2022-07-29T08:18:27;14.40;;;8.57;;
21876;SDS011;11103;43.788;23.710;2022-07-29T08:20:54;14.23;;;8.43;;
21876;SDS011;11103;43.788;23.710;2022-07-29T08:23:20;10.53;;;7.80;;
21876;SDS011;11103;43.788;23.710;2022-07-29T08:25:45;12.70;;;8.63;;
21876;SDS011;11103;43.788;23.710;2022-07-29T08:28:11;13.23;;;8.90;;
21876;SDS011;11103;43.788;23.710;2022-07-29T08:30:38;16.20;;;8.90;;
21876;SDS011;11103;43.788;23.710;2022-07-29T08:33:03;16.17;;;8.97;;
21876;SDS011;11103;43.788;23.710;2022-07-29T08:35:29;14.23;;;8.07;;
21876;SDS011;11103;43.788;23.710;2022-07-29T08:37:54;10.70;;;8.20;;
21876;SDS011;11103;43.788;23.710;2022-07-29T08:40:21;11.67;;;8.33;;
21876;SDS011;11103;43.788;23.710;2022-07-29T08:42:48;13.97;;;8.83;;
21876;SDS011;11103;43.788;23.710;2022-07-29T08:45:15;10.37;;;8.20;;
21876;SDS011;11103;43.788;23.710;2022-07-29T08:47:41;13.97;;;8.90;;
21876;SDS011;11103;43.788;23.710;2022-07-29T08:50:08;11.73;;;8.80;;
21876;SDS011;11103;43.788;23.710;2022-07-29T08:52:39;8.47;;;7.50;;
21876;SDS011;11103;43.788;23.710;2022-07-29T08:55:06;9.27;;;8.03;;
21876;SDS011;11103;43.788;23.710;2022-07-29T08:57:33;12.27;;;8.57;;
21876;SDS011;11103;43.788;23.710;2022-07-29T09:00:00;12.50;;;7.90;;
21876;SDS011;11103;43.788;23.710;2022-07-29T09:02:27;14.00;;;8.37;;
21876;SDS011;11103;43.788;23.710;2022-07-29T09:04:54;12.13;;;9.33;;
21876;SDS011;11103;43.788;23.710;2022-07-29T09:07:22;10.43;;;8.40;;
21876;SDS011;11103;43.788;23.710;2022-07-29T09:09:47;11.20;;;8.93;;
21876;SDS011;11103;43.788;23.710;2022-07-29T09:12:13;12.97;;;8.37;;
21876;SDS011;11103;43.788;23.710;2022-07-29T09:14:39;16.83;;;10.13;;
21876;SDS011;11103;43.788;23.710;2022-07-29T09:17:05;13.87;;;9.57;;
21876;SDS011;11103;43.788;23.710;2022-07-29T09:19:32;13.50;;;9.67;;
21876;SDS011;11103;43.788;23.710;2022-07-29T09:22:00;12.37;;;9.10;;
21876;SDS011;11103;43.788;23.710;2022-07-29T09:24:35;11.80;;;8.20;;
21876;SDS011;11103;43.788;23.710;2022-07-29T09:27:08;12.70;;;9.50;;
21876;SDS011;11103;43.788;23.710;2022-07-29T09:32:29;11.87;;;8.70;;
21876;SDS011;11103;43.788;23.710;2022-07-29T09:37:46;11.67;;;9.10;;
21876;SDS011;11103;43.788;23.710;2022-07-29T09:40:13;13.37;;;8.93;;
21876;SDS011;11103;43.788;23.710;2022-07-29T09:42:41;12.10;;;9.17;;
21876;SDS011;11103;43.788;23.710;2022-07-29T09:45:07;12.77;;;9.67;;
21876;SDS011;11103;43.788;23.710;2022-07-29T09:47:51;12.97;;;9.00;;
21876;SDS011;11103;43.788;23.710;2022-07-29T09:50:16;9.53;;;8.27;;
21876;SDS011;11103;43.788;23.710;2022-07-29T09:52:49;9.93;;;8.47;;
21876;SDS011;11103;43.788;23.710;2022-07-29T09:55:16;12.60;;;9.10;;
21876;SDS011;11103;43.788;23.710;2022-07-29T09:57:43;12.50;;;9.43;;
21876;SDS011;11103;43.788;23.710;2022-07-29T10:02:37;13.63;;;8.73;;
21876;SDS011;11103;43.788;23.710;2022-07-29T10:05:05;12.60;;;9.20;;
21876;SDS011;11103;43.788;23.710;2022-07-29T10:07:44;11.73;;;9.23;;
21876;SDS011;11103;43.788;23.710;2022-07-29T10:10:10;9.93;;;8.63;;
21876;SDS011;11103;43.788;23.710;2022-07-29T10:12:49;11.70;;;9.00;;
21876;SDS011;11103;43.788;23.710;2022-07-29T10:15:15;14.23;;;9.20;;
21876;SDS011;11103;43.788;23.710;2022-07-29T10:17:41;13.63;;;8.90;;
21876;SDS011;11103;43.788;23.710;2022-07-29T10:20:08;11.00;;;8.93;;
21876;SDS011;11103;43.788;23.710;2022-07-29T10:22:33;14.67;;;8.33;;
21876;SDS011;11103;43.788;23.710;2022-07-29T10:24:59;10.70;;;8.23;;
21876;SDS011;11103;43.788;23.710;2022-07-29T10:27:25;10.67;;;8.73;;
21876;SDS011;11103;43.788;23.710;2022-07-29T10:29:50;14.80;;;8.17;;
21876;SDS011;11103;43.788;23.710;2022-07-29T10:35:06;12.63;;;8.73;;
21876;SDS011;11103;43.788;23.710;2022-07-29T10:43:30;12.10;;;8.40;;
21876;SDS011;11103;43.788;23.710;2022-07-29T10:46:01;9.83;;;8.60;;
21876;SDS011;11103;43.788;23.710;2022-07-29T10:48:28;11.97;;;8.17;;
21876;SDS011;11103;43.788;23.710;2022-07-29T10:56:28;13.23;;;7.73;;
21876;SDS011;11103;43.788;23.710;2022-07-29T11:01:49;10.73;;;8.00;;
21876;SDS011;11103;43.788;23.710;2022-07-29T11:07:13;10.83;;;7.23;;
21876;SDS011;11103;43.788;23.710;2022-07-29T11:09:41;8.77;;;6.90;;
21876;SDS011;11103;43.788;23.710;2022-07-29T11:15:04;12.40;;;7.83;;
21876;SDS011;11103;43.788;23.710;2022-07-29T11:34:20;12.37;;;7.43;;
21876;SDS011;11103;43.788;23.710;2022-07-29T11:40:08;13.80;;;8.10;;
21876;SDS011;11103;43.788;23.710;2022-07-29T11:47:27;13.63;;;8.33;;
21876;SDS011;11103;43.788;23.710;2022-07-29T11:49:57;9.93;;;5.53;;
21876;SDS011;11103;43.788;23.710;2022-07-29T11:58:16;10.53;;;6.30;;
21876;SDS011;11103;43.788;23.710;2022-07-29T12:00:39;7.27;;;6.50;;
21876;SDS011;11103;43.788;23.710;2022-07-29T12:03:09;11.93;;;6.53;;
21876;SDS011;11103;43.788;23.710;2022-07-29T12:05:43;9.10;;;6.33;;
21876;SDS011;11103;43.788;23.710;2022-07-29T12:08:16;12.33;;;6.60;;
21876;SDS011;11103;43.788;23.710;2022-07-29T12:10:47;12.53;;;6.60;;
21876;SDS011;11103;43.788;23.710;2022-07-29T12:13:14;13.33;;;7.20;;
21876;SDS011;11103;43.788;23.710;2022-07-29T12:15:51;9.80;;;6.17;;
21876;SDS011;11103;43.788;23.710;2022-07-29T12:18:18;9.93;;;6.40;;
21876;SDS011;11103;43.788;23.710;2022-07-29T12:20:45;8.00;;;6.90;;
21876;SDS011;11103;43.788;23.710;2022-07-29T12:23:11;9.13;;;6.10;;
21876;SDS011;11103;43.788;23.710;2022-07-29T12:25:38;10.63;;;6.10;;
21876;SDS011;11103;43.788;23.710;2022-07-29T12:28:09;9.03;;;6.17;;
21876;SDS011;11103;43.788;23.710;2022-07-29T12:30:47;10.53;;;6.03;;
21876;SDS011;11103;43.788;23.710;2022-07-29T12:33:15;7.37;;;6.13;;
21876;SDS011;11103;43.788;23.710;2022-07-29T12:35:45;9.60;;;5.87;;
21876;SDS011;11103;43.788;23.710;2022-07-29T12:38:13;12.00;;;6.30;;
21876;SDS011;11103;43.788;23.710;2022-07-29T12:40:39;10.33;;;5.90;;
21876;SDS011;11103;43.788;23.710;2022-07-29T12:43:09;9.40;;;6.30;;
21876;SDS011;11103;43.788;23.710;2022-07-29T12:45:40;9.45;;;5.95;;
21876;SDS011;11103;43.788;23.710;2022-07-29T12:48:06;10.23;;;6.00;;
21876;SDS011;11103;43.788;23.710;2022-07-29T12:50:57;8.67;;;5.70;;
21876;SDS011;11103;43.788;23.710;2022-07-29T12:53:24;7.10;;;5.80;;
21876;SDS011;11103;43.788;23.710;2022-07-29T12:55:51;12.98;;;6.28;;
21876;SDS011;11103;43.788;23.710;2022-07-29T13:01:15;8.88;;;6.05;;
21876;SDS011;11103;43.788;23.710;2022-07-29T13:03:53;9.35;;;5.82;;
21876;SDS011;11103;43.788;23.710;2022-07-29T13:09:07;6.30;;;5.53;;
21876;SDS011;11103;43.788;23.710;2022-07-29T13:11:39;6.32;;;5.18;;
21876;SDS011;11103;43.788;23.710;2022-07-29T13:14:07;8.48;;;6.03;;
21876;SDS011;11103;43.788;23.710;2022-07-29T13:16:40;7.45;;;5.60;;
21876;SDS011;11103;43.788;23.710;2022-07-29T13:19:32;7.50;;;5.93;;
21876;SDS011;11103;43.788;23.710;2022-07-29T13:21:58;8.93;;;5.95;;
21876;SDS011;11103;43.788;23.710;2022-07-29T13:24:23;13.02;;;6.22;;
21876;SDS011;11103;43.788;23.710;2022-07-29T13:26:49;11.02;;;5.78;;
21876;SDS011;11103;43.788;23.710;2022-07-29T13:29:14;9.02;;;6.00;;
21876;SDS011;11103;43.788;23.710;2022-07-29T13:31:39;8.73;;;6.05;;
21876;SDS011;11103;43.788;23.710;2022-07-29T13:34:05;9.15;;;6.35;;
21876;SDS011;11103;43.788;23.710;2022-07-29T13:36:30;8.50;;;6.28;;
21876;SDS011;11103;43.788;23.710;2022-07-29T13:38:56;7.15;;;5.63;;
21876;SDS011;11103;43.788;23.710;2022-07-29T13:41:21;7.25;;;5.15;;
21876;SDS011;11103;43.788;23.710;2022-07-29T13:43:50;7.18;;;5.80;;
21876;SDS011;11103;43.788;23.710;2022-07-29T13:46:15;7.72;;;5.65;;
21876;SDS011;11103;43.788;23.710;2022-07-29T13:48:41;8.98;;;5.82;;
21876;SDS011;11103;43.788;23.710;2022-07-29T13:51:06;8.15;;;5.75;;
21876;SDS011;11103;43.788;23.710;2022-07-29T13:53:32;5.22;;;4.72;;
21876;SDS011;11103;43.788;23.710;2022-07-29T13:55:57;10.18;;;5.53;;
21876;SDS011;11103;43.788;23.710;2022-07-29T13:58:23;7.03;;;5.30;;
21876;SDS011;11103;43.788;23.710;2022-07-29T14:00:51;6.18;;;5.38;;
21876;SDS011;11103;43.788;23.710;2022-07-29T14:03:17;5.75;;;5.07;;
21876;SDS011;11103;43.788;23.710;2022-07-29T14:05:42;7.28;;;5.05;;
21876;SDS011;11103;43.788;23.710;2022-07-29T14:08:08;7.32;;;5.45;;
21876;SDS011;11103;43.788;23.710;2022-07-29T14:10:33;10.05;;;6.13;;
21876;SDS011;11103;43.788;23.710;2022-07-29T14:12:59;6.25;;;4.63;;
21876;SDS011;11103;43.788;23.710;2022-07-29T14:15:24;9.27;;;5.47;;
21876;SDS011;11103;43.788;23.710;2022-07-29T14:17:49;7.97;;;5.47;;
21876;SDS011;11103;43.788;23.710;2022-07-29T14:20:15;8.25;;;5.68;;
21876;SDS011;11103;43.788;23.710;2022-07-29T14:22:41;6.95;;;5.28;;
21876;SDS011;11103;43.788;23.710;2022-07-29T14:25:07;6.68;;;4.93;;
21876;SDS011;11103;43.788;23.710;2022-07-29T14:27:33;8.85;;;5.60;;
21876;SDS011;11103;43.788;23.710;2022-07-29T14:29:58;10.05;;;5.20;;
21876;SDS011;11103;43.788;23.710;2022-07-29T14:32:24;7.47;;;5.50;;
21876;SDS011;11103;43.788;23.710;2022-07-29T14:34:49;5.43;;;4.90;;
21876;SDS011;11103;43.788;23.710;2022-07-29T14:37:15;6.78;;;5.28;;
21876;SDS011;11103;43.788;23.710;2022-07-29T14:39:40;7.55;;;5.10;;
21876;SDS011;11103;43.788;23.710;2022-07-29T14:42:06;7.30;;;5.40;;
21876;SDS011;11103;43.788;23.710;2022-07-29T14:44:32;7.95;;;5.53;;
21876;SDS011;11103;43.788;23.710;2022-07-29T14:46:58;7.78;;;5.20;;
21876;SDS011;11103;43.788;23.710;2022-07-29T14:49:25;20.98;;;5.28;;
21876;SDS011;11103;43.788;23.710;2022-07-29T14:51:51;6.10;;;5.22;;
21876;SDS011;11103;43.788;23.710;2022-07-29T14:54:16;8.55;;;5.68;;
21876;SDS011;11103;43.788;23.710;2022-07-29T14:56:42;7.65;;;5.18;;
21876;SDS011;11103;43.788;23.710;2022-07-29T14:59:08;9.45;;;4.72;;
21876;SDS011;11103;43.788;23.710;2022-07-29T15:01:35;7.45;;;4.93;;
21876;SDS011;11103;43.788;23.710;2022-07-29T15:04:01;6.80;;;5.10;;
21876;SDS011;11103;43.788;23.710;2022-07-29T15:06:27;8.05;;;5.53;;
21876;SDS011;11103;43.788;23.710;2022-07-29T15:08:52;6.93;;;4.85;;
21876;SDS011;11103;43.788;23.710;2022-07-29T15:11:18;5.82;;;5.00;;
21876;SDS011;11103;43.788;23.710;2022-07-29T15:13:44;10.68;;;5.30;;
21876;SDS011;11103;43.788;23.710;2022-07-29T15:16:09;10.23;;;5.28;;
21876;SDS011;11103;43.788;23.710;2022-07-29T15:18:35;5.47;;;4.88;;
21876;SDS011;11103;43.788;23.710;2022-07-29T15:21:02;7.35;;;5.22;;
21876;SDS011;11103;43.788;23.710;2022-07-29T15:23:28;5.55;;;5.03;;
21876;SDS011;11103;43.788;23.710;2022-07-29T15:25:53;6.88;;;5.07;;
21876;SDS011;11103;43.788;23.710;2022-07-29T15:28:18;7.78;;;5.18;;
21876;SDS011;11103;43.788;23.710;2022-07-29T15:30:44;6.25;;;5.00;;
21876;SDS011;11103;43.788;23.710;2022-07-29T15:33:10;5.43;;;4.93;;
21876;SDS011;11103;43.788;23.710;2022-07-29T15:35:35;7.53;;;5.38;;
21876;SDS011;11103;43.788;23.710;2022-07-29T15:38:01;6.60;;;4.93;;
21876;SDS011;11103;43.788;23.710;2022-07-29T15:40:27;7.35;;;4.97;;
21876;SDS011;11103;43.788;23.710;2022-07-29T15:42:53;7.47;;;4.97;;
21876;SDS011;11103;43.788;23.710;2022-07-29T15:45:19;6.03;;;4.82;;
21876;SDS011;11103;43.788;23.710;2022-07-29T15:47:44;7.03;;;4.57;;
21876;SDS011;11103;43.788;23.710;2022-07-29T15:50:09;5.47;;;4.95;;
21876;SDS011;11103;43.788;23.710;2022-07-29T15:52:40;6.82;;;4.70;;